Terminal Aerodrome Forecast
Issued by NWS

Home | Current Version | Previous Version | Text Only | Print | Product List | Glossary On
Versions: 1 2 3 4 5 6 7 8 9 10 11 12 13 14 15 16
000
FTUS43 KBIS 241726
TAFJMS
TAF
KJMS 241726Z 2418/2518 17010KT P6SM VCSH OVC090
     FM241900 17010KT 5SM -SN OVC050
     FM242100 17009KT 1SM -SN BR OVC020
     FM250300 20005KT P6SM BKN020
     FM250500 25005KT P6SM SCT090
     FM251500 27012G20KT P6SM SCT040=

USA.gov is the U.S. government's official web portal to all federal, state and local government web resources and services.